createdAt,value
2023-08-22T00:02:38.846Z,20.30
2023-08-22T00:05:40.300Z,20.48
2023-08-22T00:08:41.645Z,20.43
2023-08-22T00:11:43.066Z,20.48
2023-08-22T00:14:44.471Z,20.60
2023-08-22T00:17:45.904Z,20.58
2023-08-22T00:20:47.358Z,20.45
2023-08-22T00:23:48.723Z,20.34
2023-08-22T00:26:50.076Z,20.33
2023-08-22T00:29:51.458Z,20.17
2023-08-22T00:32:52.922Z,20.16
2023-08-22T00:35:54.365Z,20.05
2023-08-22T00:38:55.712Z,20.07
2023-08-22T00:41:57.066Z,20.05
2023-08-22T00:44:58.496Z,20.17
2023-08-22T00:47:59.913Z,20.13
2023-08-22T00:51:01.326Z,20.25
2023-08-22T00:54:02.905Z,20.32
2023-08-22T00:57:04.420Z,20.45
2023-08-22T01:00:07.520Z,20.35
2023-08-22T01:03:09.070Z,20.26
2023-08-22T01:06:33.863Z,20.29
2023-08-22T01:09:38.023Z,19.99
2023-08-22T01:12:40.929Z,19.90
2023-08-22T01:15:42.281Z,19.71
2023-08-22T01:18:43.626Z,19.64
2023-08-22T01:21:51.573Z,19.63
2023-08-22T01:24:53.344Z,19.60
2023-08-22T01:27:54.636Z,19.65
2023-08-22T01:31:14.666Z,19.57
2023-08-22T01:34:23.629Z,19.57
2023-08-22T01:37:24.977Z,19.55
2023-08-22T01:40:26.395Z,19.57
2023-08-22T01:43:27.800Z,19.66
2023-08-22T01:46:29.206Z,19.62
2023-08-22T01:49:30.652Z,19.63
2023-08-22T01:52:32.054Z,19.59
2023-08-22T01:55:33.412Z,19.69
2023-08-22T01:58:34.786Z,19.77
2023-08-22T02:01:36.219Z,19.54
2023-08-22T02:04:37.696Z,19.55
2023-08-22T02:07:39.333Z,19.72
2023-08-22T02:10:40.943Z,19.80
2023-08-22T02:13:42.359Z,19.80
2023-08-22T02:16:43.744Z,19.75
2023-08-22T02:19:45.112Z,19.52
2023-08-22T02:22:46.838Z,19.46
2023-08-22T02:25:48.227Z,19.37
2023-08-22T02:28:49.598Z,19.37
2023-08-22T02:31:51.050Z,19.35
2023-08-22T02:34:52.485Z,19.35
2023-08-22T02:37:53.851Z,19.60
2023-08-22T02:40:55.219Z,19.50
2023-08-22T02:43:56.688Z,19.42
2023-08-22T02:46:58.050Z,19.39
2023-08-22T02:49:59.535Z,19.38
2023-08-22T02:53:00.928Z,19.39
2023-08-22T02:56:02.356Z,19.48
2023-08-22T02:59:04.445Z,19.55
2023-08-22T03:02:05.877Z,19.49
2023-08-22T03:05:09.944Z,19.35
2023-08-22T03:08:11.348Z,19.28
2023-08-22T03:11:12.791Z,19.25
2023-08-22T03:14:14.131Z,19.18
2023-08-22T03:17:15.483Z,19.05
2023-08-22T03:20:16.865Z,18.98
2023-08-22T03:23:18.238Z,18.88
2023-08-22T03:26:19.697Z,18.83
2023-08-22T03:29:21.116Z,18.92
2023-08-22T03:32:22.743Z,18.96
2023-08-22T03:35:24.170Z,18.87
2023-08-22T03:38:25.613Z,18.85
2023-08-22T03:41:27.038Z,18.73
2023-08-22T03:44:28.393Z,18.85
2023-08-22T03:47:29.797Z,18.92
2023-08-22T03:50:31.402Z,18.96
2023-08-22T03:53:34.237Z,18.87
2023-08-22T03:56:35.611Z,18.73
2023-08-22T03:59:36.971Z,18.80
2023-08-22T04:02:38.441Z,18.85
2023-08-22T04:05:41.542Z,18.67
2023-08-22T04:08:45.108Z,18.65
2023-08-22T04:11:46.552Z,18.73
2023-08-22T04:14:47.917Z,18.68
2023-08-22T04:17:51.313Z,18.61
2023-08-22T04:20:53.120Z,18.63
2023-08-22T04:23:54.488Z,18.71
2023-08-22T04:26:55.867Z,18.79
2023-08-22T04:29:57.425Z,18.65
2023-08-22T04:32:58.869Z,18.60
2023-08-22T04:36:00.280Z,18.65
2023-08-22T04:39:01.662Z,18.56
2023-08-22T04:42:03.064Z,18.59
2023-08-22T04:45:04.552Z,18.63
2023-08-22T04:48:06.070Z,18.70
2023-08-22T04:51:07.501Z,18.82
2023-08-22T04:54:09.015Z,18.74
2023-08-22T04:57:10.378Z,18.60
2023-08-22T05:00:12.264Z,18.72
2023-08-22T05:03:16.039Z,18.73
2023-08-22T05:06:17.488Z,18.68
2023-08-22T05:09:18.891Z,18.70
2023-08-22T05:12:20.286Z,18.75
2023-08-22T05:15:22.081Z,18.72
2023-08-22T05:18:23.529Z,18.82
2023-08-22T05:21:25.327Z,18.83
2023-08-22T05:24:26.782Z,18.87
2023-08-22T05:27:28.155Z,18.99
2023-08-22T05:30:29.515Z,19.08
2023-08-22T05:33:31.103Z,19.06
2023-08-22T05:36:32.517Z,18.93
2023-08-22T05:39:33.896Z,19.04
2023-08-22T05:42:35.324Z,19.08
2023-08-22T05:45:36.757Z,19.13
2023-08-22T05:48:38.133Z,19.21
2023-08-22T05:51:39.634Z,19.38
2023-08-22T05:54:41.592Z,19.44
2023-08-22T05:57:43.200Z,19.48
2023-08-22T06:00:44.835Z,19.61
2023-08-22T06:03:46.205Z,19.74
2023-08-22T06:06:47.546Z,19.83
2023-08-22T06:09:49.016Z,19.95
2023-08-22T06:12:50.395Z,20.02
2023-08-22T06:15:51.839Z,20.04
2023-08-22T06:18:53.227Z,20.12
2023-08-22T06:21:55.072Z,20.26
2023-08-22T06:24:56.449Z,20.37
2023-08-22T06:27:57.837Z,20.45
2023-08-22T06:31:03.131Z,20.42
2023-08-22T06:34:04.529Z,20.55
2023-08-22T06:37:07.442Z,20.70
2023-08-22T06:40:09.224Z,20.62
2023-08-22T06:43:10.630Z,20.56
2023-08-22T06:46:12.110Z,20.56
2023-08-22T06:49:13.558Z,20.68
2023-08-22T06:52:15.268Z,20.77
2023-08-22T06:55:16.766Z,20.96
2023-08-22T06:58:18.218Z,21.18
2023-08-22T07:01:19.666Z,21.27
2023-08-22T07:04:21.201Z,21.39
2023-08-22T07:07:22.651Z,21.54
2023-08-22T07:10:24.030Z,21.58
2023-08-22T07:13:25.387Z,21.75
2023-08-22T07:16:26.789Z,21.86
2023-08-22T07:19:40.322Z,22.09
2023-08-22T07:22:42.788Z,22.27
2023-08-22T07:25:47.615Z,22.46
2023-08-22T07:28:48.993Z,22.60
2023-08-22T07:31:52.345Z,22.64
2023-08-22T07:34:53.812Z,22.82
2023-08-22T07:37:55.177Z,22.99
2023-08-22T07:40:56.546Z,23.17
2023-08-22T07:43:57.920Z,23.24
2023-08-22T07:46:59.291Z,23.42
2023-08-22T07:50:00.876Z,23.48
2023-08-22T07:53:02.340Z,23.81
2023-08-22T07:56:06.180Z,23.93
2023-08-22T07:59:07.724Z,24.21
2023-08-22T08:02:09.127Z,24.45
2023-08-22T08:05:11.837Z,24.63
2023-08-22T08:08:13.277Z,24.72
2023-08-22T08:11:14.652Z,24.97
2023-08-22T08:14:16.102Z,25.19
2023-08-22T08:17:19.176Z,25.55
2023-08-22T08:20:20.569Z,25.87
2023-08-22T08:23:22.016Z,25.95
2023-08-22T08:26:23.454Z,26.29
2023-08-22T08:29:24.832Z,26.49
2023-08-22T08:32:26.803Z,26.52
2023-08-22T08:35:28.211Z,26.53
2023-08-22T08:38:29.590Z,26.56
2023-08-22T08:41:32.037Z,26.60
2023-08-22T08:44:33.942Z,26.70
2023-08-22T08:47:35.438Z,26.85
2023-08-22T08:50:37.713Z,26.74
2023-08-22T08:53:39.063Z,26.81
2023-08-22T08:56:42.061Z,27.26
2023-08-22T08:59:43.454Z,27.35
2023-08-22T09:02:45.508Z,27.27
2023-08-22T09:05:46.976Z,27.59
2023-08-22T09:09:08.352Z,27.71
2023-08-22T09:12:11.082Z,27.80
2023-08-22T09:15:12.865Z,28.57
2023-08-22T09:18:14.897Z,28.64
2023-08-22T09:21:17.432Z,28.72
2023-08-22T09:24:18.908Z,29.53
2023-08-22T09:27:25.847Z,29.77
2023-08-22T09:30:27.244Z,29.25
2023-08-22T09:33:28.619Z,28.92
2023-08-22T09:36:29.950Z,28.78
2023-08-22T09:39:32.397Z,29.15
2023-08-22T09:42:33.995Z,29.10
2023-08-22T09:45:40.722Z,28.73
2023-08-22T09:48:42.301Z,28.65
2023-08-22T09:51:47.204Z,28.73
2023-08-22T09:54:48.553Z,28.57
2023-08-22T09:57:49.948Z,28.19
2023-08-22T10:00:51.589Z,28.31
2023-08-22T10:03:54.534Z,28.10
2023-08-22T10:06:56.108Z,28.55
2023-08-22T10:09:57.487Z,28.89
2023-08-22T10:12:58.834Z,29.24
2023-08-22T10:16:00.315Z,29.07
2023-08-22T10:19:03.068Z,29.23
2023-08-22T10:22:08.725Z,29.32
2023-08-22T10:25:10.118Z,29.69
2023-08-22T10:28:11.506Z,28.95
2023-08-22T10:31:13.024Z,28.96
2023-08-22T10:34:14.489Z,28.64
2023-08-22T10:37:16.359Z,29.19
2023-08-22T10:40:28.523Z,29.49
2023-08-22T10:43:37.517Z,29.75
2023-08-22T10:46:57.730Z,29.74
2023-08-22T10:50:15.201Z,29.80
2023-08-22T10:53:19.347Z,29.98
2023-08-22T10:56:21.714Z,29.87
2023-08-22T10:59:23.101Z,29.73
2023-08-22T11:02:24.479Z,29.88
2023-08-22T11:05:26.367Z,30.15
2023-08-22T11:08:29.392Z,30.49
2023-08-22T11:11:31.056Z,30.04
2023-08-22T11:14:44.235Z,30.64
2023-08-22T11:17:49.060Z,30.43
2023-08-22T11:20:54.901Z,30.41
2023-08-22T11:23:56.331Z,30.63
2023-08-22T11:26:57.951Z,30.62
2023-08-22T11:29:59.328Z,30.75
2023-08-22T11:33:00.777Z,30.43
2023-08-22T11:36:02.166Z,30.92
2023-08-22T11:39:04.383Z,30.92
2023-08-22T11:42:05.854Z,31.20
2023-08-22T11:45:07.736Z,31.17
2023-08-22T11:48:10.535Z,30.30
2023-08-22T11:51:19.272Z,30.01
2023-08-22T11:54:24.246Z,30.35
2023-08-22T11:57:26.487Z,30.54
2023-08-22T12:00:28.365Z,30.48
2023-08-22T12:03:39.724Z,30.75
2023-08-22T12:06:41.148Z,30.97
2023-08-22T12:09:42.620Z,30.94
2023-08-22T12:12:44.009Z,30.86
2023-08-22T12:15:45.534Z,30.77
2023-08-22T12:18:46.961Z,30.87
2023-08-22T12:21:48.325Z,30.95
2023-08-22T12:24:49.737Z,31.00
2023-08-22T12:27:51.864Z,30.96
2023-08-22T12:30:53.305Z,30.97
2023-08-22T12:33:54.701Z,31.26
2023-08-22T12:36:56.104Z,31.24
2023-08-22T12:39:57.492Z,31.12
2023-08-22T12:42:59.077Z,31.07
2023-08-22T12:46:00.592Z,31.71
2023-08-22T12:49:01.976Z,31.35
2023-08-22T12:52:03.464Z,32.04
2023-08-22T12:55:07.948Z,31.83
2023-08-22T12:58:09.333Z,31.04
2023-08-22T13:01:10.801Z,30.34
2023-08-22T13:04:13.775Z,29.81
2023-08-22T13:07:15.437Z,29.96
2023-08-22T13:10:19.309Z,30.10
2023-08-22T13:13:21.003Z,30.53
2023-08-22T13:16:22.626Z,30.80
2023-08-22T13:19:23.992Z,30.67
2023-08-22T13:22:25.391Z,30.69
2023-08-22T13:25:26.755Z,31.32
2023-08-22T13:28:28.188Z,31.95
2023-08-22T13:31:29.626Z,32.17
2023-08-22T13:34:31.024Z,32.78
2023-08-22T13:37:34.052Z,32.65
2023-08-22T13:40:35.659Z,32.76
2023-08-22T13:43:39.671Z,33.46
2023-08-22T13:46:41.684Z,33.46
2023-08-22T13:49:43.244Z,33.28
2023-08-22T13:52:44.698Z,32.77
2023-08-22T13:55:46.073Z,32.88
2023-08-22T13:58:47.502Z,33.45
2023-08-22T14:01:49.713Z,33.01
2023-08-22T14:04:51.092Z,32.72
2023-08-22T14:07:52.521Z,32.21
2023-08-22T14:11:01.256Z,33.18
2023-08-22T14:14:03.040Z,32.98
2023-08-22T14:17:04.394Z,32.81
2023-08-22T14:20:06.513Z,32.67
2023-08-22T14:23:07.863Z,32.60
2023-08-22T14:26:09.235Z,32.77
2023-08-22T14:29:10.607Z,32.17
2023-08-22T14:32:12.030Z,31.90
2023-08-22T14:35:14.067Z,31.58
2023-08-22T14:38:15.454Z,31.33
2023-08-22T14:41:16.835Z,31.30
2023-08-22T14:44:18.196Z,31.28
2023-08-22T14:47:19.612Z,30.77
2023-08-22T14:50:20.977Z,30.92
2023-08-22T14:53:22.373Z,30.76
2023-08-22T14:56:23.993Z,30.52
2023-08-22T14:59:25.350Z,30.77
2023-08-22T15:02:26.798Z,30.79
2023-08-22T15:05:28.204Z,30.59
2023-08-22T15:08:32.602Z,30.61
2023-08-22T15:11:34.055Z,30.58
2023-08-22T15:14:35.427Z,30.56
2023-08-22T15:17:36.797Z,30.58
2023-08-22T15:20:38.208Z,30.59
2023-08-22T15:23:42.539Z,30.42
2023-08-22T15:26:45.828Z,30.57
2023-08-22T15:29:47.196Z,30.71
2023-08-22T15:32:48.554Z,30.40
2023-08-22T15:35:49.956Z,30.52
2023-08-22T15:38:52.262Z,30.52
2023-08-22T15:41:53.631Z,30.39
2023-08-22T15:44:55.322Z,30.65
2023-08-22T15:47:56.662Z,30.51
2023-08-22T15:51:01.015Z,30.61
2023-08-22T15:54:02.419Z,30.51
2023-08-22T15:57:03.777Z,30.64
2023-08-22T16:00:05.583Z,30.48
2023-08-22T16:03:07.881Z,30.46
2023-08-22T16:06:09.880Z,30.37
2023-08-22T16:09:11.392Z,30.24
2023-08-22T16:12:12.788Z,30.23
2023-08-22T16:15:14.200Z,30.15
2023-08-22T16:18:15.768Z,30.34
2023-08-22T16:21:17.170Z,30.17
2023-08-22T16:24:18.587Z,30.14
2023-08-22T16:27:31.082Z,30.15
2023-08-22T16:30:37.696Z,30.08
2023-08-22T16:33:39.208Z,30.18
2023-08-22T16:36:40.617Z,30.25
2023-08-22T16:39:41.974Z,30.08
2023-08-22T16:42:43.407Z,30.00
2023-08-22T16:45:44.746Z,29.89
2023-08-22T16:48:46.149Z,29.85
2023-08-22T16:51:47.534Z,29.95
2023-08-22T16:54:49.326Z,29.99
2023-08-22T16:57:50.718Z,30.05
2023-08-22T17:00:52.186Z,29.74
2023-08-22T17:03:54.277Z,29.84
2023-08-22T17:06:55.908Z,29.83
2023-08-22T17:09:57.343Z,29.63
2023-08-22T17:12:58.814Z,29.44
2023-08-22T17:16:00.286Z,29.55
2023-08-22T17:19:02.217Z,29.32
2023-08-22T17:22:03.700Z,29.09
2023-08-22T17:25:05.880Z,29.25
2023-08-22T17:28:07.358Z,28.82
2023-08-22T17:31:09.438Z,28.77
2023-08-22T17:34:10.968Z,28.55
2023-08-22T17:37:12.405Z,28.32
2023-08-22T17:40:13.860Z,28.25
2023-08-22T17:43:15.291Z,28.25
2023-08-22T17:46:20.119Z,27.97
2023-08-22T17:49:21.722Z,27.98
2023-08-22T17:52:23.173Z,27.99
2023-08-22T17:55:24.576Z,27.89
2023-08-22T17:58:26.089Z,27.87
2023-08-22T18:01:27.567Z,27.77
2023-08-22T18:04:29.020Z,27.60
2023-08-22T18:07:30.442Z,27.62
2023-08-22T18:10:31.899Z,27.51
2023-08-22T18:13:33.371Z,27.30
2023-08-22T18:16:34.992Z,27.21
2023-08-22T18:19:36.488Z,27.13
2023-08-22T18:22:40.943Z,26.75
2023-08-22T18:25:42.391Z,26.69
2023-08-22T18:28:43.817Z,26.47
2023-08-22T18:31:45.346Z,26.49
2023-08-22T18:34:46.872Z,26.26
2023-08-22T18:37:48.529Z,26.22
2023-08-22T18:40:53.641Z,26.04
2023-08-22T18:43:55.145Z,25.86
2023-08-22T18:46:56.609Z,25.68
2023-08-22T18:50:02.194Z,25.52
2023-08-22T18:53:04.460Z,25.38
2023-08-22T18:56:09.050Z,25.19
2023-08-22T18:59:11.410Z,24.99
2023-08-22T19:02:12.884Z,24.93
2023-08-22T19:05:14.354Z,24.79
2023-08-22T19:08:15.790Z,24.70
2023-08-22T19:11:17.212Z,24.59
2023-08-22T19:14:18.710Z,24.43
2023-08-22T19:17:20.163Z,24.52
2023-08-22T19:20:22.066Z,24.39
2023-08-22T19:23:23.560Z,24.34
2023-08-22T19:26:25.034Z,24.15
2023-08-22T19:29:26.910Z,24.19
2023-08-22T19:32:45.904Z,24.20
2023-08-22T19:35:49.710Z,23.95
2023-08-22T19:38:51.126Z,23.83
2023-08-22T19:41:52.573Z,23.86
2023-08-22T19:44:57.079Z,23.62
2023-08-22T19:47:58.641Z,23.60
2023-08-22T19:51:00.305Z,23.56
2023-08-22T19:54:05.559Z,23.41
2023-08-22T19:57:07.080Z,23.39
2023-08-22T20:00:11.277Z,23.27
2023-08-22T20:03:15.180Z,23.34
2023-08-22T20:06:16.617Z,23.31
2023-08-22T20:09:18.224Z,23.26
2023-08-22T20:12:19.789Z,23.18
2023-08-22T20:15:21.258Z,23.13
2023-08-22T20:18:22.782Z,23.03
2023-08-22T20:21:24.236Z,23.09
2023-08-22T20:24:25.718Z,22.98
2023-08-22T20:27:27.161Z,23.08
2023-08-22T20:30:29.667Z,23.03
2023-08-22T20:33:31.223Z,22.82
2023-08-22T20:36:32.735Z,22.85
2023-08-22T20:39:34.229Z,22.87
2023-08-22T20:42:36.611Z,22.67
2023-08-22T20:45:38.032Z,22.64
2023-08-22T20:48:39.409Z,22.48
2023-08-22T20:51:40.756Z,22.43
2023-08-22T20:54:42.106Z,22.33
2023-08-22T20:57:43.724Z,22.43
2023-08-22T21:00:45.528Z,22.41
2023-08-22T21:03:46.985Z,22.28
2023-08-22T21:06:48.438Z,22.19
2023-08-22T21:09:49.795Z,22.12
2023-08-22T21:12:51.138Z,22.12
2023-08-22T21:15:52.869Z,22.05
2023-08-22T21:18:54.322Z,21.97
2023-08-22T21:21:55.864Z,21.92
2023-08-22T21:24:57.341Z,21.89
2023-08-22T21:27:58.729Z,21.79
2023-08-22T21:31:00.098Z,21.86
2023-08-22T21:34:02.954Z,21.77
2023-08-22T21:37:04.331Z,21.72
2023-08-22T21:40:06.041Z,21.83
2023-08-22T21:43:07.396Z,21.95
2023-08-22T21:46:08.824Z,22.06
2023-08-22T21:49:10.628Z,21.79
2023-08-22T21:52:12.953Z,21.64
2023-08-22T21:55:14.436Z,21.55
2023-08-22T21:58:15.809Z,21.51
2023-08-22T22:01:17.268Z,21.55
2023-08-22T22:04:19.197Z,21.43
2023-08-22T22:07:20.592Z,21.58
2023-08-22T22:10:21.942Z,21.70
2023-08-22T22:13:23.332Z,21.61
2023-08-22T22:16:31.003Z,21.29
2023-08-22T22:19:36.555Z,21.38
2023-08-22T22:22:37.951Z,20.96
2023-08-22T22:25:39.308Z,20.85
2023-08-22T22:28:40.802Z,20.90
2023-08-22T22:31:42.240Z,20.63
2023-08-22T22:34:43.657Z,20.39
2023-08-22T22:37:45.569Z,20.33
2023-08-22T22:40:47.345Z,20.32
2023-08-22T22:43:48.737Z,20.29
2023-08-22T22:46:50.156Z,20.20
2023-08-22T22:49:53.378Z,20.17
2023-08-22T22:52:54.964Z,20.19
2023-08-22T22:55:56.632Z,20.23
2023-08-22T22:58:58.001Z,20.27
2023-08-22T23:01:59.380Z,20.06
2023-08-22T23:05:00.846Z,19.99
2023-08-22T23:08:02.545Z,20.27
2023-08-22T23:11:05.049Z,20.13
2023-08-22T23:14:07.398Z,20.17
2023-08-22T23:17:09.749Z,20.10
2023-08-22T23:20:12.607Z,19.95
2023-08-22T23:23:14.079Z,19.92
2023-08-22T23:26:15.439Z,19.87
2023-08-22T23:29:16.796Z,19.74
2023-08-22T23:32:18.325Z,19.67
2023-08-22T23:35:19.736Z,19.66
2023-08-22T23:38:21.115Z,19.73
2023-08-22T23:41:22.484Z,19.73
2023-08-22T23:44:23.938Z,19.64
2023-08-22T23:47:25.452Z,19.58
2023-08-22T23:50:26.902Z,19.59
2023-08-22T23:53:28.288Z,19.65
2023-08-22T23:56:29.655Z,19.74
2023-08-22T23:59:31.290Z,19.67
